Time;durP1;ratioP1;P1;durP2;ratioP2;P2;SDS_P1;SDS_P2;PMS_P1;PMS_P2;Temp;Humidity;BMP_temperature;BMP_pressure;BME280_temperature;BME280_humidity;BME280_pressure;Samples;Min_cycle;Max_cycle;Signal;HPM_P1;HPM_P2
2024/01/14 00:00:10;;;;;;;23.83;16.87;;;4.90;99.90;;;;;;5029075;28;20601;-77
2024/01/14 00:02:38;;;;;;;26.55;16.77;;;5.00;99.90;;;;;;5012452;28;20192;-78
2024/01/14 00:05:07;;;;;;;27.65;17.27;;;5.00;99.90;;;;;;5010697;28;20209;-78
2024/01/14 00:07:32;;;;;;;22.90;16.08;;;5.00;99.90;;;;;;5013936;28;20212;-78
2024/01/14 00:09:59;;;;;;;30.70;17.90;;;4.90;99.90;;;;;;5022034;28;20252;-78
2024/01/14 00:12:27;;;;;;;24.42;16.45;;;5.00;99.90;;;;;;5013065;28;20177;-77
2024/01/14 00:14:53;;;;;;;28.88;18.20;;;5.00;99.90;;;;;;4987916;28;20204;-77
2024/01/14 00:17:19;;;;;;;23.60;15.57;;;5.00;99.90;;;;;;5024111;28;20174;-77
2024/01/14 00:19:44;;;;;;;21.97;13.60;;;5.00;99.90;;;;;;5009943;28;20185;-77
2024/01/14 00:22:10;;;;;;;25.57;17.10;;;4.90;99.90;;;;;;5009394;28;20676;-77
2024/01/14 00:24:36;;;;;;;23.60;16.30;;;5.00;99.90;;;;;;5009938;28;20252;-77
2024/01/14 00:27:01;;;;;;;20.10;14.23;;;5.00;99.90;;;;;;5022824;28;20177;-77
2024/01/14 00:29:27;;;;;;;27.30;15.90;;;5.00;99.90;;;;;;5012054;28;20643;-78
2024/01/14 00:31:53;;;;;;;26.80;16.33;;;4.90;99.90;;;;;;4996294;28;20456;-78
2024/01/14 00:34:19;;;;;;;23.97;14.97;;;4.90;99.90;;;;;;5030153;28;20185;-77
2024/01/14 00:36:45;;;;;;;23.47;15.87;;;4.90;99.90;;;;;;5012381;28;20975;-77
2024/01/14 00:39:11;;;;;;;26.20;16.57;;;4.90;99.90;;;;;;5015788;28;20265;-77
2024/01/14 00:41:36;;;;;;;26.27;15.20;;;4.90;99.90;;;;;;5019578;28;20197;-78
2024/01/14 00:44:02;;;;;;;28.10;17.60;;;4.90;99.90;;;;;;5015280;28;20883;-77
2024/01/14 00:46:31;;;;;;;28.63;18.20;;;4.90;99.90;;;;;;5014049;28;20629;-77
2024/01/14 00:48:57;;;;;;;24.60;16.27;;;4.90;99.90;;;;;;4996625;28;20204;-77
2024/01/14 00:51:23;;;;;;;21.42;12.90;;;4.80;99.90;;;;;;4979705;28;20202;-77
2024/01/14 00:53:49;;;;;;;26.48;20.83;;;4.80;99.90;;;;;;5023759;28;20822;-78
2024/01/14 00:56:15;;;;;;;27.50;17.53;;;4.80;99.90;;;;;;5015944;28;20208;-77
2024/01/14 00:58:41;;;;;;;27.23;18.03;;;4.80;99.90;;;;;;5033596;28;20588;-77
2024/01/14 01:01:06;;;;;;;29.40;18.20;;;4.80;99.90;;;;;;5033345;28;21093;-77
2024/01/14 01:03:32;;;;;;;28.00;16.07;;;4.90;99.90;;;;;;5015809;28;20186;-77
2024/01/14 01:05:58;;;;;;;25.67;16.20;;;4.90;99.90;;;;;;4996419;28;20281;-77
2024/01/14 01:08:23;;;;;;;24.27;15.80;;;4.90;99.90;;;;;;4996360;28;20238;-77
2024/01/14 01:10:49;;;;;;;25.60;15.63;;;4.90;99.90;;;;;;4995757;28;20174;-77
2024/01/14 01:13:15;;;;;;;24.83;15.13;;;4.90;99.90;;;;;;5027354;28;20601;-77
2024/01/14 01:15:41;;;;;;;22.70;14.82;;;4.90;99.90;;;;;;4982616;28;20237;-78
2024/01/14 01:18:07;;;;;;;27.23;16.23;;;4.90;99.90;;;;;;5012872;28;20598;-77
2024/01/14 01:20:32;;;;;;;24.17;14.60;;;4.90;99.90;;;;;;5013907;28;20213;-77
2024/01/14 01:22:58;;;;;;;22.30;14.00;;;4.90;99.90;;;;;;5028855;28;20213;-77
2024/01/14 01:25:24;;;;;;;23.83;14.35;;;4.90;99.90;;;;;;4995720;28;20652;-77
2024/01/14 01:27:50;;;;;;;24.77;15.70;;;4.90;99.90;;;;;;4997517;28;20174;-77
2024/01/14 01:30:16;;;;;;;22.87;15.80;;;4.90;99.90;;;;;;5015244;28;20178;-77
2024/01/14 01:32:41;;;;;;;29.10;17.30;;;4.90;99.90;;;;;;5015388;28;20204;-77
2024/01/14 01:35:07;;;;;;;21.20;14.10;;;4.90;99.90;;;;;;5015138;28;20198;-77
2024/01/14 01:37:33;;;;;;;24.60;14.50;;;4.90;99.90;;;;;;5017671;28;20192;-77
2024/01/14 01:39:59;;;;;;;21.27;13.00;;;4.90;99.90;;;;;;4987236;28;20186;-77
2024/01/14 01:42:24;;;;;;;22.27;13.80;;;4.90;99.90;;;;;;4979581;28;20183;-77
2024/01/14 01:44:50;;;;;;;26.33;15.60;;;4.90;99.90;;;;;;4995360;28;20238;-77
2024/01/14 01:47:16;;;;;;;21.73;14.17;;;4.90;99.90;;;;;;4997311;28;20185;-77
2024/01/14 01:49:45;;;;;;;21.50;15.23;;;4.90;99.90;;;;;;5012751;28;20178;-77
2024/01/14 01:52:12;;;;;;;22.00;15.23;;;4.90;99.90;;;;;;4998782;28;20264;-76
2024/01/14 01:54:39;;;;;;;22.45;14.02;;;4.90;99.90;;;;;;5016417;28;20182;-76
2024/01/14 01:57:06;;;;;;;18.13;12.60;;;4.90;99.90;;;;;;4992980;28;20229;-76
2024/01/14 01:59:32;;;;;;;18.95;12.82;;;4.90;99.90;;;;;;5010656;28;20209;-76
2024/01/14 02:02:00;;;;;;;23.00;13.80;;;4.80;99.90;;;;;;5041503;28;20193;-77
2024/01/14 02:04:29;;;;;;;17.67;11.05;;;4.80;99.90;;;;;;5027264;28;20287;-76
2024/01/14 02:06:56;;;;;;;19.70;13.33;;;4.80;99.90;;;;;;5021175;28;20677;-76
2024/01/14 02:09:21;;;;;;;22.33;14.15;;;4.80;99.90;;;;;;4993617;28;20590;-77
2024/01/14 02:11:47;;;;;;;19.27;12.23;;;4.80;99.90;;;;;;4997510;28;20702;-76
2024/01/14 02:14:13;;;;;;;22.03;13.23;;;4.70;99.90;;;;;;5017628;28;20596;-77
2024/01/14 02:16:39;;;;;;;19.43;12.37;;;4.70;99.90;;;;;;5019419;28;20292;-76
2024/01/14 02:19:04;;;;;;;20.40;13.17;;;4.70;99.90;;;;;;5007218;28;20599;-76
2024/01/14 02:21:41;;;;;;;16.10;11.23;;;4.70;99.90;;;;;;5024542;28;20647;-76
2024/01/14 02:24:23;;;;;;;21.90;13.20;;;4.70;99.90;;;;;;5006567;28;20193;-77
2024/01/14 02:26:49;;;;;;;23.13;12.05;;;4.70;99.90;;;;;;5023057;28;20197;-76
2024/01/14 02:29:15;;;;;;;21.37;14.30;;;4.70;99.90;;;;;;4994483;28;20186;-76
2024/01/14 02:31:41;;;;;;;22.63;12.60;;;4.70;99.90;;;;;;5023999;28;20693;-77
2024/01/14 02:34:07;;;;;;;18.90;12.10;;;4.70;99.90;;;;;;5009120;28;20188;-77
2024/01/14 02:36:33;;;;;;;19.53;13.57;;;4.60;99.90;;;;;;4997845;28;20208;-76
2024/01/14 02:38:59;;;;;;;20.13;13.25;;;4.70;99.90;;;;;;5031681;28;20595;-77
2024/01/14 02:41:25;;;;;;;18.60;12.13;;;4.70;99.90;;;;;;5031460;28;20177;-76
2024/01/14 02:43:50;;;;;;;18.70;13.70;;;4.70;99.90;;;;;;5013484;28;20591;-77
2024/01/14 02:46:16;;;;;;;18.00;12.97;;;4.60;99.90;;;;;;5017956;28;20692;-77
2024/01/14 02:48:42;;;;;;;19.33;12.83;;;4.70;99.90;;;;;;5020077;28;20190;-76
2024/01/14 02:51:07;;;;;;;20.37;13.30;;;4.70;99.90;;;;;;4997338;28;20177;-76
2024/01/14 02:53:33;;;;;;;18.93;12.00;;;4.70;99.90;;;;;;5013912;28;20260;-77
2024/01/14 02:55:59;;;;;;;17.93;12.03;;;4.70;99.90;;;;;;5031406;28;20217;-77
2024/01/14 02:58:25;;;;;;;18.50;11.30;;;4.70;99.90;;;;;;4983609;28;20177;-77
2024/01/14 03:00:50;;;;;;;16.40;11.10;;;4.70;99.90;;;;;;5020182;28;20716;-77
2024/01/14 03:03:16;;;;;;;17.07;11.13;;;4.70;99.90;;;;;;4992639;28;20179;-77
2024/01/14 03:05:42;;;;;;;16.40;10.20;;;4.70;99.90;;;;;;5010842;28;21264;-78
2024/01/14 03:08:08;;;;;;;16.47;11.50;;;4.70;99.90;;;;;;5013700;28;20182;-77
2024/01/14 03:10:34;;;;;;;19.10;11.52;;;4.70;99.90;;;;;;5005652;28;20635;-77
2024/01/14 03:13:00;;;;;;;16.00;11.10;;;4.70;99.90;;;;;;4997050;28;20614;-77
2024/01/14 03:15:26;;;;;;;16.40;10.55;;;4.70;99.90;;;;;;5001884;28;20292;-77
2024/01/14 03:17:52;;;;;;;17.53;11.27;;;4.70;99.90;;;;;;5010958;28;20256;-77
2024/01/14 03:20:18;;;;;;;16.33;10.77;;;4.70;99.90;;;;;;5030008;28;20582;-78
2024/01/14 03:22:44;;;;;;;17.90;10.73;;;4.60;99.90;;;;;;4996544;28;20181;-78
2024/01/14 03:25:10;;;;;;;14.43;9.88;;;4.70;99.90;;;;;;4977106;28;20206;-77
2024/01/14 03:27:35;;;;;;;16.00;10.03;;;4.70;99.90;;;;;;5009783;28;20174;-76
2024/01/14 03:30:02;;;;;;;14.50;9.83;;;4.70;99.90;;;;;;5001734;28;20699;-77
2024/01/14 03:32:28;;;;;;;15.77;10.18;;;4.70;99.90;;;;;;5007762;28;20185;-77
2024/01/14 03:34:54;;;;;;;14.53;10.07;;;4.70;99.90;;;;;;5030500;28;20205;-77
2024/01/14 03:37:19;;;;;;;18.53;11.20;;;4.70;99.90;;;;;;5013317;28;20596;-78
2024/01/14 03:39:45;;;;;;;15.53;9.97;;;4.70;99.90;;;;;;5030375;28;20186;-77
2024/01/14 03:42:11;;;;;;;13.53;9.83;;;4.70;99.90;;;;;;4996365;28;20220;-77
2024/01/14 03:44:36;;;;;;;16.67;10.10;;;4.70;99.90;;;;;;4980072;28;20570;-77
2024/01/14 03:47:02;;;;;;;15.93;10.03;;;4.70;99.90;;;;;;4996734;28;20186;-77
2024/01/14 03:49:29;;;;;;;13.77;9.67;;;4.70;99.90;;;;;;5015538;28;20177;-76
2024/01/14 03:51:54;;;;;;;13.77;9.43;;;4.70;99.90;;;;;;5004493;28;20174;-77
2024/01/14 03:54:20;;;;;;;15.33;9.60;;;4.70;99.90;;;;;;5012854;28;20584;-77
2024/01/14 03:56:46;;;;;;;14.10;9.80;;;4.70;99.90;;;;;;5004510;28;20202;-77
2024/01/14 03:59:11;;;;;;;14.10;10.00;;;4.70;99.90;;;;;;5010175;28;20682;-77
2024/01/14 04:01:37;;;;;;;14.90;9.93;;;4.70;99.90;;;;;;5010603;28;20612;-77
2024/01/14 04:04:03;;;;;;;18.40;12.20;;;4.70;99.90;;;;;;4992809;28;20710;-78
2024/01/14 04:06:29;;;;;;;18.13;11.23;;;4.70;99.90;;;;;;5009299;28;20209;-77
2024/01/14 04:08:54;;;;;;;17.47;10.20;;;4.70;99.90;;;;;;4993087;28;20593;-77
2024/01/14 04:11:20;;;;;;;17.20;9.90;;;4.70;99.90;;;;;;5010265;28;20652;-76
2024/01/14 04:13:46;;;;;;;16.60;11.03;;;4.70;99.90;;;;;;4999162;28;20640;-77
2024/01/14 04:16:11;;;;;;;15.33;9.80;;;4.70;99.90;;;;;;5011113;28;20193;-77
2024/01/14 04:18:37;;;;;;;14.43;10.13;;;4.60;99.90;;;;;;5004034;28;20178;-76
2024/01/14 04:21:03;;;;;;;16.00;10.10;;;4.70;99.90;;;;;;5007343;28;20549;-77
2024/01/14 04:23:29;;;;;;;12.60;9.27;;;4.70;99.90;;;;;;5012745;28;20184;-76
2024/01/14 04:25:54;;;;;;;11.80;8.43;;;4.60;99.90;;;;;;5004307;28;20655;-77
2024/01/14 04:28:20;;;;;;;12.93;9.80;;;4.60;99.90;;;;;;5017166;28;20188;-76
2024/01/14 04:30:46;;;;;;;14.02;9.13;;;4.70;99.90;;;;;;5016155;28;20332;-77
2024/01/14 04:33:12;;;;;;;17.87;10.47;;;4.60;99.90;;;;;;5010268;28;20201;-77
2024/01/14 04:35:38;;;;;;;14.93;9.43;;;4.60;99.90;;;;;;5036567;28;20255;-76
2024/01/14 04:38:03;;;;;;;14.90;9.60;;;4.60;99.90;;;;;;5010195;28;20594;-76
2024/01/14 04:40:29;;;;;;;14.00;8.93;;;4.60;99.90;;;;;;5018570;28;20679;-76
2024/01/14 04:42:55;;;;;;;18.13;10.77;;;4.60;99.90;;;;;;5018474;28;20192;-77
2024/01/14 04:45:21;;;;;;;15.20;8.67;;;4.60;99.90;;;;;;5036055;28;20205;-77
2024/01/14 04:47:47;;;;;;;14.87;8.97;;;4.60;99.90;;;;;;5036788;28;20415;-77
2024/01/14 04:50:12;;;;;;;12.25;9.23;;;4.60;99.90;;;;;;5036053;28;20652;-77
2024/01/14 04:52:39;;;;;;;17.08;9.38;;;4.60;99.90;;;;;;5010274;28;20209;-77
2024/01/14 04:55:05;;;;;;;14.07;8.60;;;4.60;99.90;;;;;;5002084;28;20789;-76
2024/01/14 04:57:31;;;;;;;15.57;9.53;;;4.60;99.90;;;;;;5035953;28;20177;-78
2024/01/14 04:59:56;;;;;;;13.80;8.10;;;4.60;99.90;;;;;;5002091;28;20708;-76
2024/01/14 05:02:22;;;;;;;12.43;8.63;;;4.60;99.90;;;;;;5006368;28;20236;-76
2024/01/14 05:04:48;;;;;;;12.30;8.10;;;4.60;99.90;;;;;;4986254;28;20710;-77
2024/01/14 05:07:13;;;;;;;11.90;8.17;;;4.60;99.90;;;;;;5036459;28;20170;-76
2024/01/14 05:09:39;;;;;;;13.20;8.73;;;4.60;99.90;;;;;;4985605;28;20655;-77
2024/01/14 05:12:05;;;;;;;15.00;9.50;;;4.60;99.90;;;;;;5026436;28;20193;-77
2024/01/14 05:14:31;;;;;;;12.02;8.23;;;4.60;99.90;;;;;;4982736;28;20189;-77
2024/01/14 05:16:56;;;;;;;14.27;8.77;;;4.60;99.90;;;;;;4999705;28;20178;-77
2024/01/14 05:19:22;;;;;;;13.13;8.07;;;4.60;99.90;;;;;;5013783;28;20174;-77
2024/01/14 05:21:50;;;;;;;14.90;9.53;;;4.60;99.90;;;;;;5016766;28;20180;-76
2024/01/14 05:24:16;;;;;;;11.88;7.57;;;4.60;99.90;;;;;;4996942;28;20244;-77
2024/01/14 05:26:42;;;;;;;11.60;7.40;;;4.60;99.90;;;;;;5012299;28;20650;-78
2024/01/14 05:29:07;;;;;;;12.03;8.47;;;4.70;99.90;;;;;;4997432;28;20613;-76
2024/01/14 05:31:33;;;;;;;11.23;7.93;;;4.70;99.90;;;;;;5033158;28;20182;-76
2024/01/14 05:33:59;;;;;;;10.50;8.00;;;4.70;99.90;;;;;;4998039;28;20170;-76
2024/01/14 05:36:24;;;;;;;9.97;7.10;;;4.70;99.90;;;;;;4979499;28;20201;-77
2024/01/14 05:38:50;;;;;;;11.40;7.10;;;4.70;99.90;;;;;;4995897;28;20214;-77
2024/01/14 05:41:16;;;;;;;11.70;8.00;;;4.70;99.90;;;;;;5019212;28;20177;-78
2024/01/14 05:43:42;;;;;;;13.40;9.67;;;4.80;99.90;;;;;;5033130;28;20178;-78
2024/01/14 05:46:07;;;;;;;15.80;9.27;;;4.80;99.90;;;;;;5014876;28;20221;-77
2024/01/14 05:48:33;;;;;;;14.07;8.13;;;4.80;99.90;;;;;;5001566;28;20195;-77
2024/01/14 05:50:59;;;;;;;14.50;8.93;;;4.70;99.90;;;;;;4995136;28;20181;-78
2024/01/14 05:53:24;;;;;;;12.93;10.00;;;4.80;99.90;;;;;;4995349;28;21022;-77
2024/01/14 05:55:50;;;;;;;15.60;9.43;;;4.70;99.90;;;;;;4995308;28;20225;-77
2024/01/14 05:58:16;;;;;;;10.63;8.40;;;4.70;99.90;;;;;;5011505;28;20723;-78
2024/01/14 06:00:41;;;;;;;11.83;8.17;;;4.70;99.90;;;;;;5012627;28;20178;-76
2024/01/14 06:03:07;;;;;;;12.07;8.63;;;4.70;99.90;;;;;;5014507;28;20182;-76
2024/01/14 06:05:33;;;;;;;12.83;7.90;;;4.70;99.90;;;;;;5001134;28;20263;-76
2024/01/14 06:07:58;;;;;;;14.00;9.17;;;4.70;99.90;;;;;;5012490;28;20170;-76
2024/01/14 06:10:25;;;;;;;10.60;7.87;;;4.70;99.90;;;;;;5012183;28;20784;-76
2024/01/14 06:12:51;;;;;;;14.27;8.52;;;4.60;99.90;;;;;;5024333;28;20174;-75
2024/01/14 06:15:17;;;;;;;14.30;8.67;;;4.60;99.90;;;;;;5030640;28;20578;-77
2024/01/14 06:17:43;;;;;;;11.97;8.27;;;4.60;99.90;;;;;;5018132;28;20189;-76
2024/01/14 06:20:09;;;;;;;11.53;7.30;;;4.60;99.90;;;;;;4997803;28;20268;-76
2024/01/14 06:22:35;;;;;;;10.10;7.10;;;4.50;99.90;;;;;;5014563;28;21385;-76
2024/01/14 06:25:00;;;;;;;13.60;9.10;;;4.50;99.90;;;;;;5032085;28;20213;-75
2024/01/14 06:27:26;;;;;;;10.97;7.23;;;4.50;99.90;;;;;;5014614;28;20173;-76
2024/01/14 06:29:52;;;;;;;12.23;7.67;;;4.50;99.90;;;;;;5014134;28;20173;-76
2024/01/14 06:32:18;;;;;;;12.77;8.07;;;4.50;99.90;;;;;;5031219;28;20609;-76
2024/01/14 06:34:44;;;;;;;13.00;8.50;;;4.50;99.90;;;;;;5031376;28;20702;-76
2024/01/14 06:37:10;;;;;;;14.20;8.20;;;4.50;99.90;;;;;;5014218;28;20174;-76
2024/01/14 06:39:35;;;;;;;12.10;7.93;;;4.50;99.90;;;;;;5013667;28;20588;-76
2024/01/14 06:42:01;;;;;;;11.10;7.70;;;4.50;99.90;;;;;;5031770;28;20592;-75
2024/01/14 06:44:27;;;;;;;11.13;7.37;;;4.40;99.90;;;;;;5031375;28;20691;-75
2024/01/14 06:46:53;;;;;;;10.30;6.90;;;4.40;99.90;;;;;;4980595;28;20178;-75
2024/01/14 06:49:18;;;;;;;13.47;9.10;;;4.40;99.90;;;;;;5027967;28;20704;-75
2024/01/14 06:51:45;;;;;;;12.90;8.00;;;4.50;99.90;;;;;;5008902;28;20181;-77
2024/01/14 06:54:11;;;;;;;11.02;7.55;;;4.50;99.90;;;;;;5022734;28;20545;-77
2024/01/14 06:56:44;;;;;;;10.63;7.80;;;4.50;99.90;;;;;;5011291;28;20740;-76
2024/01/14 06:59:15;;;;;;;10.93;7.60;;;4.50;99.90;;;;;;5028992;28;20493;-77
2024/01/14 07:01:41;;;;;;;10.45;6.97;;;4.50;99.90;;;;;;4986144;28;20320;-77
2024/01/14 07:04:07;;;;;;;11.83;7.53;;;4.60;99.90;;;;;;4993622;28;20296;-77
2024/01/14 07:06:32;;;;;;;10.80;7.57;;;4.60;99.90;;;;;;4994375;28;20209;-77
2024/01/14 07:08:58;;;;;;;13.30;8.00;;;4.60;99.90;;;;;;5007375;28;20174;-77
2024/01/14 07:11:24;;;;;;;11.53;8.00;;;4.60;99.90;;;;;;5011229;28;20174;-77
2024/01/14 07:13:50;;;;;;;10.63;6.60;;;4.60;99.90;;;;;;4994017;28;20178;-77
2024/01/14 07:16:15;;;;;;;12.53;7.73;;;4.70;99.90;;;;;;4977717;28;20623;-77
2024/01/14 07:18:41;;;;;;;10.57;7.13;;;4.70;99.90;;;;;;4993693;28;20186;-78
2024/01/14 07:21:10;;;;;;;9.33;5.73;;;4.70;99.90;;;;;;4993433;28;20190;-76
2024/01/14 07:23:37;;;;;;;11.88;7.60;;;4.70;99.90;;;;;;5011571;28;20174;-78
2024/01/14 07:26:05;;;;;;;10.80;7.40;;;4.70;99.90;;;;;;4993681;28;20198;-77
2024/01/14 07:28:31;;;;;;;9.85;6.70;;;4.80;99.90;;;;;;4993238;28;20182;-78
2024/01/14 07:30:57;;;;;;;9.32;6.30;;;4.70;99.90;;;;;;4991730;28;20171;-78
2024/01/14 07:33:23;;;;;;;12.83;6.40;;;4.80;99.90;;;;;;5013856;28;20232;-78
2024/01/14 07:35:48;;;;;;;10.23;7.00;;;4.80;99.90;;;;;;5010409;28;21054;-77
2024/01/14 07:38:14;;;;;;;9.20;6.50;;;4.80;99.90;;;;;;5010120;28;20190;-78
2024/01/14 07:40:41;;;;;;;8.30;5.27;;;4.80;99.90;;;;;;5010454;28;20213;-78
2024/01/14 07:43:07;;;;;;;11.82;6.80;;;4.80;99.90;;;;;;5011204;28;20261;-78
2024/01/14 07:45:33;;;;;;;9.85;6.43;;;4.80;99.90;;;;;;5010756;28;20206;-78
2024/01/14 07:47:59;;;;;;;8.17;5.90;;;4.90;99.90;;;;;;4989319;28;20206;-77
2024/01/14 07:50:25;;;;;;;8.47;6.30;;;4.90;99.90;;;;;;5039899;28;20575;-78
2024/01/14 07:52:50;;;;;;;7.60;5.50;;;4.90;99.90;;;;;;5046864;28;20177;-77
2024/01/14 07:55:16;;;;;;;8.27;5.60;;;4.90;99.90;;;;;;5042168;28;20201;-77
2024/01/14 07:57:42;;;;;;;9.93;6.30;;;4.90;99.90;;;;;;5042791;28;20182;-77
2024/01/14 08:00:08;;;;;;;10.37;6.80;;;5.00;99.90;;;;;;5032992;28;20584;-77
2024/01/14 08:02:43;;;;;;;9.98;6.65;;;5.00;99.90;;;;;;5004504;28;20194;-77
2024/01/14 08:05:09;;;;;;;9.93;7.50;;;5.00;99.90;;;;;;5025118;28;20210;-77
2024/01/14 08:07:35;;;;;;;10.75;6.50;;;5.00;99.90;;;;;;5010834;28;20177;-77
2024/01/14 08:10:01;;;;;;;8.90;6.50;;;5.00;99.90;;;;;;5029946;28;20170;-76
2024/01/14 08:12:27;;;;;;;10.00;6.50;;;5.10;99.90;;;;;;5013888;28;20205;-76
2024/01/14 08:14:55;;;;;;;10.83;6.10;;;5.10;99.90;;;;;;5013854;28;20571;-78
2024/01/14 08:17:21;;;;;;;9.50;5.80;;;5.10;99.90;;;;;;4997207;28;20596;-77
2024/01/14 08:19:46;;;;;;;9.13;6.90;;;5.10;99.90;;;;;;5023469;28;20189;-77
2024/01/14 08:22:16;;;;;;;9.23;6.67;;;5.20;99.90;;;;;;5012180;28;20177;-77
2024/01/14 08:24:42;;;;;;;10.10;6.80;;;5.20;99.90;;;;;;4999591;28;20198;-77
2024/01/14 08:27:08;;;;;;;9.30;6.10;;;5.20;99.90;;;;;;5013474;28;20181;-77
2024/01/14 08:29:33;;;;;;;7.77;5.97;;;5.20;99.90;;;;;;5029418;28;20170;-77
2024/01/14 08:31:59;;;;;;;10.07;6.80;;;5.20;99.90;;;;;;5029563;28;20173;-77
2024/01/14 08:34:25;;;;;;;9.20;6.37;;;5.10;99.90;;;;;;4996657;28;20181;-77
2024/01/14 08:36:51;;;;;;;9.73;5.60;;;5.10;99.90;;;;;;5013663;28;20224;-78
2024/01/14 08:39:17;;;;;;;8.63;6.00;;;5.10;99.90;;;;;;5016765;28;20186;-77
2024/01/14 08:41:43;;;;;;;10.17;5.47;;;5.10;99.90;;;;;;5034473;28;20179;-77
2024/01/14 08:44:10;;;;;;;7.93;5.35;;;5.10;99.90;;;;;;5039133;28;20293;-77
2024/01/14 08:46:40;;;;;;;9.45;5.60;;;5.10;99.90;;;;;;5047770;28;20201;-77
2024/01/14 08:49:07;;;;;;;5.53;3.97;;;5.20;99.90;;;;;;5014486;28;20177;-77
2024/01/14 08:51:33;;;;;;;7.70;5.35;;;5.20;99.90;;;;;;5030362;28;20170;-77
2024/01/14 08:54:00;;;;;;;9.03;5.40;;;5.20;99.90;;;;;;4999597;28;20223;-77
2024/01/14 08:56:29;;;;;;;9.80;7.10;;;5.20;99.90;;;;;;5012178;28;20609;-77
2024/01/14 08:58:56;;;;;;;8.23;6.53;;;5.20;99.90;;;;;;5021469;28;20231;-77
2024/01/14 09:01:22;;;;;;;7.05;4.78;;;5.20;99.90;;;;;;5025931;28;20232;-77
2024/01/14 09:03:48;;;;;;;8.27;6.10;;;5.20;99.90;;;;;;5002611;28;20257;-78
2024/01/14 09:06:14;;;;;;;8.00;4.87;;;5.10;99.90;;;;;;5024036;28;21105;-77
2024/01/14 09:08:40;;;;;;;6.77;5.00;;;5.10;99.90;;;;;;5003392;28;20581;-78
2024/01/14 09:11:05;;;;;;;6.00;4.43;;;5.10;99.90;;;;;;5004800;28;21149;-78
2024/01/14 09:13:31;;;;;;;8.60;5.70;;;5.10;99.90;;;;;;4996035;28;20183;-78
2024/01/14 09:15:57;;;;;;;7.33;5.27;;;5.10;99.90;;;;;;5011366;28;20552;-77
2024/01/14 09:18:22;;;;;;;6.80;4.73;;;5.20;99.90;;;;;;5015850;28;20177;-78
2024/01/14 09:20:49;;;;;;;8.20;5.03;;;5.10;99.90;;;;;;5015840;28;20239;-78
2024/01/14 09:23:15;;;;;;;6.80;4.95;;;5.10;99.90;;;;;;5016121;28;20242;-78
2024/01/14 09:25:40;;;;;;;6.80;4.50;;;5.20;99.90;;;;;;4982244;28;20695;-78
2024/01/14 09:28:06;;;;;;;6.07;4.80;;;5.20;99.90;;;;;;4979821;28;20232;-78
2024/01/14 09:30:32;;;;;;;6.50;4.50;;;5.20;99.90;;;;;;5023968;28;20200;-78
2024/01/14 09:32:59;;;;;;;7.73;5.10;;;5.20;99.90;;;;;;4999422;28;20177;-78
2024/01/14 09:35:24;;;;;;;8.07;5.55;;;5.30;99.90;;;;;;5031946;28;20236;-78
2024/01/14 09:37:50;;;;;;;7.23;4.20;;;5.30;99.90;;;;;;5015514;28;21156;-77
2024/01/14 09:40:16;;;;;;;6.43;4.70;;;5.30;99.90;;;;;;5035176;22;20222;-73
2024/01/14 09:42:47;;;;;;;7.00;4.60;;;5.30;99.90;;;;;;5016987;28;20181;-73
2024/01/14 09:45:13;;;;;;;6.40;4.43;;;5.30;99.90;;;;;;5030580;28;20201;-77
2024/01/14 09:47:41;;;;;;;7.78;4.80;;;5.30;99.90;;;;;;5017770;28;20232;-77
2024/01/14 09:50:08;;;;;;;8.95;5.10;;;5.20;99.90;;;;;;5031155;28;20198;-77
2024/01/14 09:52:34;;;;;;;6.47;4.65;;;5.20;99.90;;;;;;5035446;28;20169;-76
2024/01/14 09:55:00;;;;;;;9.32;5.40;;;5.20;99.90;;;;;;5016061;28;20175;-76
2024/01/14 09:57:30;;;;;;;6.30;4.45;;;5.20;99.90;;;;;;5030761;28;20551;-77
2024/01/14 09:59:55;;;;;;;7.63;4.75;;;5.20;99.90;;;;;;5016138;28;20526;-77
2024/01/14 10:02:22;;;;;;;7.70;5.80;;;5.20;99.90;;;;;;5023193;28;20185;-77
2024/01/14 10:04:48;;;;;;;7.47;5.32;;;5.20;99.90;;;;;;5017774;28;20637;-77
2024/01/14 10:07:15;;;;;;;6.40;4.70;;;5.10;99.90;;;;;;5029607;28;20186;-78
2024/01/14 10:09:42;;;;;;;7.30;5.20;;;5.10;99.90;;;;;;5010783;28;20202;-77
2024/01/14 10:12:09;;;;;;;7.72;4.90;;;5.10;99.90;;;;;;5022898;28;20575;-77
2024/01/14 10:14:35;;;;;;;8.52;5.30;;;5.00;99.90;;;;;;5021120;28;20174;-77
2024/01/14 10:17:01;;;;;;;8.35;5.40;;;5.00;99.90;;;;;;5028281;28;20540;-77
2024/01/14 10:19:27;;;;;;;8.03;5.77;;;4.90;99.90;;;;;;4989845;28;20208;-77
2024/01/14 10:21:55;;;;;;;6.90;5.00;;;4.90;99.90;;;;;;5026434;28;21229;-77
2024/01/14 10:24:21;;;;;;;7.25;4.90;;;4.90;99.90;;;;;;5021118;28;20225;-77
2024/01/14 10:26:54;;;;;;;6.85;4.40;;;4.80;99.90;;;;;;5032278;28;20178;-77
2024/01/14 10:29:21;;;;;;;10.45;7.00;;;4.80;99.90;;;;;;5016259;28;20194;-77
2024/01/14 10:31:48;;;;;;;12.38;7.68;;;4.80;99.90;;;;;;5017433;28;20247;-77
2024/01/14 10:34:16;;;;;;;12.07;6.47;;;4.80;99.90;;;;;;5031828;28;20188;-76
2024/01/14 10:36:43;;;;;;;16.30;6.68;;;4.80;99.90;;;;;;5027669;28;20185;-76
2024/01/14 10:39:11;;;;;;;8.45;6.43;;;4.90;99.90;;;;;;5020994;28;20259;-76
2024/01/14 10:41:37;;;;;;;7.97;6.13;;;4.90;99.90;;;;;;5048076;28;20208;-76
2024/01/14 10:44:03;;;;;;;8.32;5.03;;;4.90;99.90;;;;;;4993603;28;20265;-76
2024/01/14 10:46:32;;;;;;;10.05;5.85;;;5.00;99.90;;;;;;5008458;28;20261;-76
2024/01/14 10:49:08;;;;;;;6.90;4.82;;;5.00;99.90;;;;;;5027289;28;20261;-78
2024/01/14 10:51:40;;;;;;;10.68;6.30;;;5.10;99.90;;;;;;5029972;28;20169;-78
2024/01/14 10:54:19;;;;;;;12.02;7.82;;;5.10;99.90;;;;;;5009247;28;20546;-78
2024/01/14 10:56:48;;;;;;;11.30;8.10;;;5.20;99.90;;;;;;5046838;28;20655;-79
2024/01/14 10:59:16;;;;;;;9.93;6.93;;;5.20;99.90;;;;;;5039241;28;20744;-77
2024/01/14 11:01:51;;;;;;;9.88;6.53;;;5.30;99.90;;;;;;5040055;28;20216;-77
2024/01/14 11:04:18;;;;;;;8.70;5.60;;;5.30;99.90;;;;;;5031001;28;20828;-77
2024/01/14 11:06:46;;;;;;;5.47;4.15;;;5.30;99.90;;;;;;5050540;28;20190;-77
2024/01/14 11:09:12;;;;;;;8.27;5.22;;;5.30;99.90;;;;;;4980637;28;20220;-77
2024/01/14 11:11:48;;;;;;;7.23;4.73;;;5.30;99.90;;;;;;5043209;28;20203;-77
2024/01/14 11:14:37;;;;;;;6.38;4.68;;;5.30;99.90;;;;;;5042583;28;20591;-77
2024/01/14 11:17:18;;;;;;;6.30;3.72;;;5.30;99.90;;;;;;5031541;28;20177;-77
2024/01/14 11:19:47;;;;;;;7.05;4.85;;;5.30;99.90;;;;;;5028277;28;20198;-77
2024/01/14 11:22:21;;;;;;;6.13;4.88;;;5.30;99.90;;;;;;5013489;28;20173;-77
2024/01/14 11:24:47;;;;;;;9.07;5.97;;;5.20;99.90;;;;;;5046224;28;20636;-77
2024/01/14 11:27:14;;;;;;;6.22;4.85;;;5.20;99.90;;;;;;5013438;28;20284;-77
2024/01/14 11:29:40;;;;;;;5.93;4.45;;;5.20;99.90;;;;;;5038805;28;20557;-77
2024/01/14 11:32:14;;;;;;;7.47;4.65;;;5.20;99.90;;;;;;5012414;28;20172;-77
2024/01/14 11:34:49;;;;;;;5.80;3.92;;;5.20;99.90;;;;;;5012887;28;20213;-77
2024/01/14 11:37:33;;;;;;;6.05;4.40;;;5.20;99.90;;;;;;4997159;28;20180;-77
2024/01/14 11:40:08;;;;;;;7.22;5.00;;;5.10;99.90;;;;;;5025881;28;20209;-77
2024/01/14 11:42:35;;;;;;;7.25;4.40;;;5.10;99.90;;;;;;5050319;28;20672;-77
2024/01/14 11:45:32;;;;;;;5.10;4.10;;;5.10;99.90;;;;;;5026961;28;20759;-76
2024/01/14 11:48:00;;;;;;;7.32;4.53;;;5.20;99.90;;;;;;5023966;28;20169;-77
2024/01/14 11:50:27;;;;;;;7.15;4.15;;;5.20;99.90;;;;;;5024155;28;20193;-77
2024/01/14 11:52:57;;;;;;;7.18;4.93;;;5.20;99.90;;;;;;5024533;28;20184;-77
2024/01/14 11:55:30;;;;;;;5.25;4.22;;;5.30;99.90;;;;;;5041848;28;20189;-76
2024/01/14 11:58:08;;;;;;;5.70;4.53;;;5.20;99.90;;;;;;5036312;28;20255;-76
2024/01/14 12:00:36;;;;;;;7.68;5.25;;;5.30;99.90;;;;;;5041079;28;20201;-77
2024/01/14 12:03:10;;;;;;;6.25;5.35;;;5.20;99.90;;;;;;5032590;28;20577;-74
2024/01/14 12:05:36;;;;;;;5.63;4.47;;;5.30;99.90;;;;;;5024014;28;20288;-74
2024/01/14 12:08:02;;;;;;;6.85;4.30;;;5.30;99.90;;;;;;5023937;28;20550;-74
2024/01/14 12:10:32;;;;;;;8.57;5.47;;;5.30;99.90;;;;;;5023739;28;20192;-74
2024/01/14 12:13:07;;;;;;;6.68;4.82;;;5.30;99.90;;;;;;5007959;28;20591;-74
2024/01/14 12:15:33;;;;;;;6.32;4.65;;;5.20;99.90;;;;;;5024265;28;20272;-74
2024/01/14 12:18:01;;;;;;;6.10;4.77;;;5.20;99.90;;;;;;5041966;28;20606;-74
2024/01/14 12:20:27;;;;;;;5.45;4.93;;;5.10;99.90;;;;;;5027318;28;20232;-74
2024/01/14 12:23:07;;;;;;;8.52;5.45;;;5.10;99.90;;;;;;5024473;28;20180;-74
2024/01/14 12:25:33;;;;;;;5.72;4.68;;;5.10;99.90;;;;;;5024047;28;20209;-74
2024/01/14 12:27:59;;;;;;;7.35;5.60;;;5.10;99.90;;;;;;5024327;28;20165;-75
2024/01/14 12:30:34;;;;;;;7.20;4.63;;;5.00;99.90;;;;;;5048511;28;20211;-74
2024/01/14 12:33:22;;;;;;;6.32;4.00;;;5.10;99.90;;;;;;5026987;28;20169;-74
2024/01/14 12:35:48;;;;;;;5.75;4.40;;;5.00;99.90;;;;;;5045926;28;20181;-75
2024/01/14 12:38:14;;;;;;;4.97;4.10;;;5.10;99.90;;;;;;5036039;28;20204;-74
2024/01/14 12:40:39;;;;;;;6.10;4.72;;;5.10;99.90;;;;;;5015880;28;20726;-74
2024/01/14 12:43:09;;;;;;;4.87;3.40;;;5.10;99.90;;;;;;5031239;28;20200;-74
2024/01/14 12:45:35;;;;;;;5.70;3.90;;;5.10;99.90;;;;;;5042943;28;20331;-74